Time;durP1;ratioP1;P1;durP2;ratioP2;P2;SDS_P1;SDS_P2;PMS_P1;PMS_P2;Temp;Humidity;BMP_temperature;BMP_pressure;BME280_temperature;BME280_humidity;BME280_pressure;Samples;Min_cycle;Max_cycle;Signal;HPM_P1;HPM_P2
2022/03/27 00:02:11;;;;;;;5.07;1.98;;;5.40;99.90;;;;;;5076236;28;20043;-75
2022/03/27 00:04:36;;;;;;;4.93;1.90;;;5.30;99.90;;;;;;5111636;28;20043;-75
2022/03/27 00:07:02;;;;;;;9.90;2.00;;;5.30;99.90;;;;;;5092090;28;20048;-75
2022/03/27 00:09:27;;;;;;;7.10;1.50;;;5.20;99.90;;;;;;5111330;28;20062;-75
2022/03/27 00:11:53;;;;;;;4.15;1.70;;;5.20;99.90;;;;;;5091818;28;20056;-75
2022/03/27 00:14:18;;;;;;;2.55;1.75;;;5.20;99.90;;;;;;5101708;28;20505;-74
2022/03/27 00:16:44;;;;;;;2.42;1.60;;;5.10;99.90;;;;;;5078130;28;20494;-75
2022/03/27 00:19:10;;;;;;;1.00;0.93;;;5.10;99.90;;;;;;5100795;28;20406;-74
2022/03/27 00:21:40;;;;;;;2.03;1.50;;;5.10;99.90;;;;;;5080666;28;20074;-74
2022/03/27 00:24:06;;;;;;;1.40;1.10;;;5.10;99.90;;;;;;5096879;28;20470;-74
2022/03/27 00:26:31;;;;;;;2.45;1.35;;;5.10;99.90;;;;;;5096266;28;20058;-74
2022/03/27 00:28:57;;;;;;;1.85;1.25;;;5.10;99.90;;;;;;5085296;28;20039;-74
2022/03/27 00:31:22;;;;;;;1.80;1.42;;;5.10;99.90;;;;;;5083535;28;20036;-74
2022/03/27 00:33:48;;;;;;;2.97;1.85;;;5.20;99.90;;;;;;5102570;28;20075;-74
2022/03/27 00:36:15;;;;;;;9.05;2.05;;;4.90;99.90;;;;;;5101016;28;20044;-74
2022/03/27 00:38:42;;;;;;;4.50;1.85;;;5.20;99.90;;;;;;5093149;28;20436;-74
2022/03/27 00:41:08;;;;;;;3.30;1.40;;;5.20;99.90;;;;;;5107668;28;20043;-74
2022/03/27 00:43:35;;;;;;;2.47;1.95;;;5.20;99.90;;;;;;5116434;27;20043;-74
2022/03/27 00:46:01;;;;;;;5.40;2.53;;;5.10;99.90;;;;;;5105042;28;20067;-75
2022/03/27 00:48:26;;;;;;;3.30;1.75;;;5.20;99.90;;;;;;5101459;27;20086;-74
2022/03/27 00:50:53;;;;;;;3.95;1.90;;;5.20;99.90;;;;;;5100511;27;20059;-74
2022/03/27 00:53:21;;;;;;;3.00;1.88;;;5.20;99.90;;;;;;5106514;28;20032;-74
2022/03/27 00:55:48;;;;;;;4.32;2.45;;;5.30;99.90;;;;;;5097410;28;20047;-74
2022/03/27 00:58:16;;;;;;;5.65;2.00;;;5.30;99.90;;;;;;5114449;28;20043;-74
2022/03/27 01:00:47;;;;;;;2.17;1.77;;;5.20;99.90;;;;;;5115561;28;20043;-74
2022/03/27 01:03:21;;;;;;;3.25;1.95;;;5.20;99.90;;;;;;5115206;28;20079;-74
2022/03/27 01:05:48;;;;;;;7.55;1.92;;;5.20;99.90;;;;;;5115426;28;20123;-74
2022/03/27 01:08:15;;;;;;;3.35;1.80;;;5.10;99.90;;;;;;5115082;28;20066;-75
2022/03/27 01:10:42;;;;;;;2.38;1.65;;;5.20;99.90;;;;;;5114504;28;20082;-75
2022/03/27 01:13:18;;;;;;;1.90;1.70;;;5.10;99.90;;;;;;5096909;28;20051;-75
2022/03/27 01:15:53;;;;;;;3.38;1.92;;;5.10;99.90;;;;;;5120618;27;20066;-74
2022/03/27 01:18:19;;;;;;;2.10;1.70;;;5.10;99.90;;;;;;5132246;27;20485;-74
2022/03/27 01:20:45;;;;;;;2.13;1.85;;;5.10;99.90;;;;;;5103809;28;20040;-75
2022/03/27 01:23:12;;;;;;;4.20;2.50;;;5.00;99.90;;;;;;5109655;28;20362;-75
2022/03/27 01:25:40;;;;;;;4.35;2.15;;;5.00;99.90;;;;;;5095917;28;20105;-75
2022/03/27 01:28:08;;;;;;;2.38;2.17;;;5.00;99.90;;;;;;5094054;28;20486;-74
2022/03/27 01:30:34;;;;;;;3.78;2.13;;;5.00;99.90;;;;;;5094571;28;20061;-74
2022/03/27 01:32:59;;;;;;;7.10;2.83;;;4.90;99.90;;;;;;5093263;28;20183;-74
2022/03/27 01:35:25;;;;;;;6.32;3.22;;;4.90;99.90;;;;;;5094424;28;20040;-74
2022/03/27 01:37:51;;;;;;;7.72;2.67;;;4.90;99.90;;;;;;5075615;28;20047;-74
2022/03/27 01:40:17;;;;;;;5.03;2.75;;;4.90;99.90;;;;;;5092443;28;20260;-74
2022/03/27 01:42:44;;;;;;;5.68;2.60;;;4.90;99.90;;;;;;5094276;28;20391;-74
2022/03/27 01:45:10;;;;;;;5.45;3.28;;;4.80;99.90;;;;;;5094019;28;20043;-74
2022/03/27 01:47:37;;;;;;;8.05;3.22;;;4.80;99.90;;;;;;5093484;28;20044;-74
2022/03/27 01:50:05;;;;;;;4.25;3.15;;;4.80;99.90;;;;;;5093920;28;20047;-74
2022/03/27 01:52:31;;;;;;;6.28;2.88;;;4.80;99.90;;;;;;5103210;28;20047;-74
2022/03/27 01:54:57;;;;;;;5.55;3.60;;;4.80;99.90;;;;;;5109488;28;20075;-75
2022/03/27 01:57:22;;;;;;;3.55;3.00;;;4.70;99.90;;;;;;5130282;27;20507;-74
2022/03/27 01:59:48;;;;;;;5.10;3.33;;;4.80;99.90;;;;;;5115773;27;20031;-74
2022/03/27 02:02:14;;;;;;;5.40;3.40;;;4.70;99.90;;;;;;5134830;27;20495;-74
2022/03/27 02:04:39;;;;;;;7.18;2.80;;;4.70;99.90;;;;;;5116309;27;20043;-74
2022/03/27 02:07:05;;;;;;;5.15;3.03;;;4.80;99.90;;;;;;5133503;27;20031;-74
2022/03/27 02:09:31;;;;;;;5.03;2.72;;;4.80;99.90;;;;;;5134916;27;20096;-74
2022/03/27 02:11:56;;;;;;;5.50;3.80;;;4.90;99.90;;;;;;5133686;27;20054;-74
2022/03/27 02:14:22;;;;;;;5.30;3.35;;;4.80;99.90;;;;;;5115152;27;20042;-74
2022/03/27 02:16:48;;;;;;;4.30;3.20;;;4.80;99.90;;;;;;5134660;27;20090;-74
2022/03/27 02:19:13;;;;;;;4.10;3.17;;;4.80;99.90;;;;;;5134232;27;20074;-74
2022/03/27 02:21:41;;;;;;;6.18;3.50;;;4.80;99.90;;;;;;5115007;27;20489;-74
2022/03/27 02:24:08;;;;;;;11.43;3.17;;;4.80;99.90;;;;;;5115910;27;20500;-74
2022/03/27 02:26:34;;;;;;;55.15;5.10;;;4.80;99.90;;;;;;5115995;27;20459;-74
2022/03/27 02:29:01;;;;;;;55.25;5.68;;;4.80;99.90;;;;;;5133324;27;20113;-75
2022/03/27 02:31:27;;;;;;;4.30;3.28;;;4.80;99.90;;;;;;5115729;27;20500;-74
2022/03/27 02:33:52;;;;;;;5.50;3.22;;;4.80;99.90;;;;;;5115406;27;20043;-74
2022/03/27 02:36:18;;;;;;;12.50;2.70;;;4.70;99.90;;;;;;5133645;27;20047;-74
2022/03/27 02:38:44;;;;;;;28.27;3.88;;;4.70;99.90;;;;;;5115702;27;20027;-74
2022/03/27 02:41:11;;;;;;;42.20;4.82;;;4.60;99.90;;;;;;5133699;27;20078;-74
2022/03/27 02:43:38;;;;;;;27.40;2.72;;;4.60;99.90;;;;;;5114910;27;20050;-75
2022/03/27 02:46:05;;;;;;;6.30;2.55;;;4.60;99.90;;;;;;5133541;27;20043;-74
2022/03/27 02:48:31;;;;;;;24.15;3.72;;;4.60;99.90;;;;;;5115140;27;20051;-74
2022/03/27 02:50:57;;;;;;;42.33;3.75;;;4.50;99.90;;;;;;5113899;27;20083;-74
2022/03/27 02:53:23;;;;;;;17.08;2.47;;;4.50;99.90;;;;;;5115180;27;20127;-74
2022/03/27 02:55:49;;;;;;;8.57;2.47;;;4.60;99.90;;;;;;5115210;27;20043;-74
2022/03/27 02:58:15;;;;;;;3.05;2.22;;;4.50;99.90;;;;;;5133526;27;20529;-75
2022/03/27 03:00:41;;;;;;;8.18;2.15;;;4.40;99.90;;;;;;5133700;27;20046;-74
2022/03/27 03:03:08;;;;;;;19.38;2.75;;;4.40;99.90;;;;;;5132564;27;20039;-74
2022/03/27 03:05:34;;;;;;;4.07;2.10;;;4.40;99.90;;;;;;5133545;27;20509;-75
2022/03/27 03:08:02;;;;;;;4.75;2.05;;;4.40;99.90;;;;;;5133403;27;20114;-75
2022/03/27 03:10:29;;;;;;;13.85;2.90;;;4.40;99.90;;;;;;5114493;27;20039;-74
2022/03/27 03:12:55;;;;;;;48.45;3.20;;;4.30;99.90;;;;;;5114528;27;20047;-74
2022/03/27 03:15:23;;;;;;;8.20;2.80;;;4.20;99.90;;;;;;5115273;27;20104;-74
2022/03/27 03:17:49;;;;;;;10.75;3.67;;;4.20;99.90;;;;;;5132220;27;20035;-74
2022/03/27 03:20:16;;;;;;;40.90;4.03;;;4.20;99.90;;;;;;5133436;27;20397;-74
2022/03/27 03:22:41;;;;;;;47.03;3.20;;;4.10;99.90;;;;;;5133409;27;20035;-74
2022/03/27 03:25:08;;;;;;;71.45;4.53;;;4.20;99.90;;;;;;5132236;27;20054;-74
2022/03/27 03:27:34;;;;;;;8.40;2.67;;;4.10;99.90;;;;;;5114821;27;20438;-74
2022/03/27 03:29:59;;;;;;;17.02;2.63;;;4.10;99.90;;;;;;5132788;27;20039;-74
2022/03/27 03:32:26;;;;;;;53.15;5.28;;;4.10;99.90;;;;;;5113933;27;20058;-74
2022/03/27 03:34:52;;;;;;;100.97;6.25;;;4.00;99.90;;;;;;5114448;27;20087;-74
2022/03/27 03:37:18;;;;;;;68.25;4.13;;;3.90;99.90;;;;;;5114857;27;20058;-74
2022/03/27 03:39:45;;;;;;;41.22;3.35;;;3.90;99.90;;;;;;5132257;27;20035;-74
2022/03/27 03:42:11;;;;;;;20.10;2.97;;;3.90;99.90;;;;;;5114185;27;20087;-74
2022/03/27 03:44:37;;;;;;;7.53;2.05;;;3.90;99.90;;;;;;5132899;27;20126;-74
2022/03/27 03:47:03;;;;;;;5.35;1.90;;;3.90;99.90;;;;;;5113319;27;20098;-74
2022/03/27 03:49:29;;;;;;;6.07;2.90;;;3.80;99.90;;;;;;5114085;27;20054;-74
2022/03/27 03:51:54;;;;;;;37.40;3.17;;;3.80;99.90;;;;;;5113998;27;20082;-74
2022/03/27 03:54:20;;;;;;;54.80;4.93;;;3.70;99.90;;;;;;5132216;27;20131;-74
2022/03/27 03:56:46;;;;;;;10.05;3.47;;;3.70;99.90;;;;;;5114267;28;20043;-75
2022/03/27 03:59:11;;;;;;;8.88;2.75;;;3.70;99.90;;;;;;5131727;27;20504;-74
2022/03/27 04:01:37;;;;;;;12.35;3.08;;;3.60;99.90;;;;;;5114146;28;20051;-74
2022/03/27 04:04:02;;;;;;;8.57;2.85;;;3.60;99.90;;;;;;5113481;28;20050;-74
2022/03/27 04:06:31;;;;;;;60.50;4.68;;;3.60;99.90;;;;;;5113507;28;20047;-74
2022/03/27 04:08:56;;;;;;;15.05;2.78;;;3.60;99.90;;;;;;5132313;28;20051;-75
2022/03/27 04:11:22;;;;;;;27.42;3.42;;;3.60;99.90;;;;;;5088531;28;20036;-74
2022/03/27 04:13:47;;;;;;;11.93;3.85;;;3.70;99.90;;;;;;5109532;28;20130;-74
2022/03/27 04:16:13;;;;;;;8.13;3.10;;;3.70;99.90;;;;;;5096152;28;20130;-74
2022/03/27 04:18:39;;;;;;;10.38;3.53;;;3.70;99.90;;;;;;5093741;28;20090;-74
2022/03/27 04:21:04;;;;;;;12.88;3.53;;;3.70;99.90;;;;;;5095472;28;20043;-74
2022/03/27 04:23:30;;;;;;;6.10;2.92;;;3.50;99.90;;;;;;5132607;28;20036;-74
2022/03/27 04:25:56;;;;;;;7.95;2.88;;;3.50;99.90;;;;;;5132141;28;20478;-75
2022/03/27 04:28:22;;;;;;;7.57;2.47;;;3.50;99.90;;;;;;5131738;28;20038;-74
2022/03/27 04:30:47;;;;;;;9.82;3.20;;;3.50;99.90;;;;;;5132317;28;20051;-74
2022/03/27 04:33:13;;;;;;;22.90;5.18;;;3.50;99.90;;;;;;5125316;28;20114;-74
2022/03/27 04:35:38;;;;;;;3.42;2.63;;;3.40;99.90;;;;;;5102900;28;20094;-74
2022/03/27 04:38:05;;;;;;;11.30;3.47;;;3.40;99.90;;;;;;5077892;28;20044;-74
2022/03/27 04:40:34;;;;;;;7.65;2.88;;;3.40;99.90;;;;;;5111833;28;20055;-74
2022/03/27 04:43:00;;;;;;;3.47;2.40;;;3.40;99.90;;;;;;5090924;28;20048;-74
2022/03/27 04:45:28;;;;;;;4.75;2.45;;;3.40;99.90;;;;;;5073168;28;20051;-74
2022/03/27 04:47:54;;;;;;;4.10;2.38;;;3.30;99.90;;;;;;5104789;28;20056;-75
2022/03/27 04:50:19;;;;;;;9.65;2.85;;;3.30;99.90;;;;;;5103702;28;20085;-76
2022/03/27 04:52:45;;;;;;;3.65;2.30;;;3.30;99.90;;;;;;5121601;28;20073;-74
2022/03/27 04:55:10;;;;;;;4.57;2.38;;;3.30;99.90;;;;;;5112070;28;20404;-74
2022/03/27 04:57:38;;;;;;;9.10;2.92;;;3.20;99.90;;;;;;5111454;28;20047;-74
2022/03/27 05:00:11;;;;;;;9.10;3.22;;;3.20;99.90;;;;;;5111102;28;20478;-74
2022/03/27 05:02:41;;;;;;;36.10;3.85;;;3.20;99.90;;;;;;5092870;28;20442;-74
2022/03/27 05:05:10;;;;;;;11.52;3.53;;;3.20;99.90;;;;;;5111381;28;20048;-74
2022/03/27 05:07:37;;;;;;;13.95;3.85;;;3.20;99.90;;;;;;5113378;28;20118;-74
2022/03/27 05:10:06;;;;;;;7.82;3.20;;;3.20;99.90;;;;;;5125881;28;20082;-74
2022/03/27 05:12:32;;;;;;;11.13;3.10;;;3.20;99.90;;;;;;5123033;28;20055;-74
2022/03/27 05:14:57;;;;;;;4.50;3.08;;;3.20;99.90;;;;;;5113894;28;20047;-74
2022/03/27 05:17:23;;;;;;;15.85;3.70;;;3.20;99.90;;;;;;5114236;28;20055;-74
2022/03/27 05:19:49;;;;;;;8.43;3.05;;;3.20;99.90;;;;;;5114744;28;20035;-74
2022/03/27 05:22:15;;;;;;;9.40;2.92;;;3.30;99.90;;;;;;5111174;28;20043;-74
2022/03/27 05:24:41;;;;;;;6.10;2.80;;;3.30;99.90;;;;;;5103797;27;20039;-74
2022/03/27 05:27:06;;;;;;;4.72;2.45;;;3.20;99.90;;;;;;5120757;27;20427;-74
2022/03/27 05:29:32;;;;;;;6.57;1.98;;;3.20;99.90;;;;;;5096722;28;20052;-74
2022/03/27 05:31:58;;;;;;;8.23;2.28;;;3.20;99.90;;;;;;5117306;27;20059;-74
2022/03/27 05:34:24;;;;;;;11.77;2.58;;;3.20;99.90;;;;;;5097107;28;20052;-74
2022/03/27 05:36:50;;;;;;;6.88;2.42;;;3.20;99.90;;;;;;5104208;28;20036;-74
2022/03/27 05:39:16;;;;;;;11.02;2.58;;;3.20;99.90;;;;;;5083606;28;20463;-74
2022/03/27 05:41:43;;;;;;;11.70;4.32;;;3.20;99.90;;;;;;5096456;28;20047;-74
2022/03/27 05:44:08;;;;;;;14.52;3.90;;;3.20;99.90;;;;;;5101808;28;20281;-74
2022/03/27 05:46:34;;;;;;;18.98;4.32;;;3.30;99.90;;;;;;5075312;28;20134;-74
2022/03/27 05:48:59;;;;;;;15.77;5.10;;;3.30;99.90;;;;;;5093744;28;20048;-74
2022/03/27 05:51:25;;;;;;;14.52;3.58;;;3.40;99.90;;;;;;5094188;28;20040;-75
2022/03/27 05:53:51;;;;;;;24.70;5.63;;;3.50;99.90;;;;;;5074838;28;20040;-74
2022/03/27 05:56:17;;;;;;;26.10;6.25;;;3.60;99.90;;;;;;5093993;28;20036;-74
2022/03/27 05:58:42;;;;;;;29.60;6.53;;;3.70;99.90;;;;;;5077926;28;20043;-74
2022/03/27 06:01:08;;;;;;;25.67;5.35;;;3.80;99.90;;;;;;5123338;27;20574;-74
2022/03/27 06:03:34;;;;;;;30.13;6.47;;;3.90;99.90;;;;;;5098412;28;20088;-74
2022/03/27 06:05:59;;;;;;;44.70;7.60;;;4.00;99.90;;;;;;5124912;27;20439;-75
2022/03/27 06:08:25;;;;;;;37.08;8.80;;;4.10;99.90;;;;;;5134731;27;20397;-74
2022/03/27 06:10:50;;;;;;;42.10;6.95;;;4.20;99.90;;;;;;5101815;28;20048;-74
2022/03/27 06:13:17;;;;;;;37.13;7.00;;;4.40;99.90;;;;;;5099805;28;20594;-74
2022/03/27 06:15:43;;;;;;;36.70;6.90;;;4.50;99.90;;;;;;5104452;28;20052;-74
2022/03/27 06:18:10;;;;;;;26.90;5.90;;;4.50;99.90;;;;;;5075123;28;20050;-74
2022/03/27 06:20:36;;;;;;;27.23;6.03;;;4.60;99.90;;;;;;5092800;28;20048;-74
2022/03/27 06:23:03;;;;;;;27.17;6.53;;;4.60;99.90;;;;;;5093189;28;20044;-74
2022/03/27 06:25:29;;;;;;;32.20;6.63;;;4.60;99.90;;;;;;5092898;28;20067;-74
2022/03/27 06:27:56;;;;;;;28.25;6.65;;;4.60;99.90;;;;;;5092601;28;20044;-73
2022/03/27 06:30:24;;;;;;;10.20;3.00;;;4.70;99.90;;;;;;5093459;28;20076;-74
2022/03/27 06:32:51;;;;;;;12.10;2.88;;;4.70;99.90;;;;;;5092996;28;20044;-74
2022/03/27 06:35:19;;;;;;;7.53;2.33;;;4.50;99.90;;;;;;5079655;28;20495;-74
2022/03/27 06:37:45;;;;;;;11.85;2.60;;;4.30;99.90;;;;;;5113537;27;20126;-74
2022/03/27 06:40:13;;;;;;;8.85;2.83;;;4.10;99.90;;;;;;5090673;27;20052;-73
2022/03/27 06:42:39;;;;;;;10.45;2.65;;;4.00;99.90;;;;;;5107427;28;20130;-74
2022/03/27 06:45:05;;;;;;;6.35;1.98;;;4.00;99.90;;;;;;5127893;27;20122;-74
2022/03/27 06:47:32;;;;;;;6.43;1.58;;;4.00;99.90;;;;;;5117371;27;20038;-74
2022/03/27 06:49:59;;;;;;;8.55;2.72;;;4.00;99.90;;;;;;5112170;28;20055;-74
2022/03/27 06:52:26;;;;;;;11.13;3.85;;;4.10;99.90;;;;;;5095195;28;20095;-74
2022/03/27 06:54:54;;;;;;;8.85;2.30;;;4.20;99.90;;;;;;5094487;28;20477;-74
2022/03/27 06:57:20;;;;;;;7.57;2.50;;;4.30;99.90;;;;;;5093958;28;20549;-74
2022/03/27 07:05:14;;;;;;;9.32;2.88;;;4.60;99.90;;;;;;5113268;28;20055;-74
2022/03/27 07:07:42;;;;;;;13.80;3.25;;;5.00;99.90;;;;;;5094937;28;20040;-73
2022/03/27 07:10:08;;;;;;;10.32;3.30;;;4.80;99.90;;;;;;5111196;28;20051;-74
2022/03/27 07:12:34;;;;;;;22.55;5.15;;;4.90;99.90;;;;;;5123417;27;20039;-74
2022/03/27 07:14:59;;;;;;;20.10;4.53;;;5.10;99.90;;;;;;5101805;28;20054;-74
2022/03/27 07:17:25;;;;;;;28.48;6.13;;;5.20;99.90;;;;;;5085191;28;20165;-74
2022/03/27 07:19:52;;;;;;;34.80;6.35;;;5.40;99.90;;;;;;5087641;27;20115;-74
2022/03/27 07:22:17;;;;;;;29.88;7.45;;;5.60;99.90;;;;;;5101204;28;20446;-74
2022/03/27 07:24:43;;;;;;;25.20;6.30;;;5.80;99.90;;;;;;5091679;28;20168;-74
2022/03/27 07:27:09;;;;;;;39.95;7.72;;;5.90;99.90;;;;;;5073494;28;20056;-74
2022/03/27 07:29:36;;;;;;;40.40;8.45;;;6.10;99.90;;;;;;5092300;28;20184;-74
2022/03/27 07:32:02;;;;;;;41.65;9.00;;;6.20;99.90;;;;;;5101681;28;20040;-74
2022/03/27 07:34:28;;;;;;;29.30;7.22;;;6.40;99.90;;;;;;5112996;27;20176;-74
2022/03/27 07:36:54;;;;;;;37.05;6.78;;;6.50;99.90;;;;;;5119453;27;20122;-75
2022/03/27 07:39:21;;;;;;;40.10;7.43;;;6.70;99.90;;;;;;5111241;28;20111;-75
2022/03/27 07:41:47;;;;;;;25.60;6.32;;;6.80;99.90;;;;;;5112477;28;20052;-73
2022/03/27 07:44:12;;;;;;;40.95;7.55;;;6.90;99.90;;;;;;5113657;27;20127;-74
2022/03/27 07:46:38;;;;;;;33.28;8.45;;;7.10;99.90;;;;;;5114204;27;20126;-74
2022/03/27 07:49:04;;;;;;;35.45;7.72;;;7.10;99.90;;;;;;5114146;27;20051;-73
2022/03/27 07:51:29;;;;;;;37.65;8.32;;;7.30;99.90;;;;;;5115328;28;20040;-74
2022/03/27 07:53:55;;;;;;;26.42;6.60;;;7.40;99.90;;;;;;5111829;28;20130;-73
2022/03/27 07:56:20;;;;;;;26.27;7.47;;;7.50;99.90;;;;;;5112319;28;20043;-73
2022/03/27 07:58:46;;;;;;;35.25;9.10;;;7.60;99.90;;;;;;5102687;28;20074;-73
2022/03/27 08:01:14;;;;;;;39.60;8.23;;;7.70;99.90;;;;;;5107800;28;20044;-73
2022/03/27 08:03:41;;;;;;;31.67;7.90;;;7.80;99.90;;;;;;5089682;28;20134;-74
2022/03/27 08:06:07;;;;;;;34.03;7.82;;;7.80;99.90;;;;;;5091590;28;20496;-73
2022/03/27 08:08:33;;;;;;;31.67;8.40;;;7.90;99.90;;;;;;5105668;28;20036;-73
2022/03/27 08:10:58;;;;;;;27.90;8.02;;;8.00;99.90;;;;;;5093133;28;20494;-73
2022/03/27 08:13:24;;;;;;;38.78;8.57;;;8.10;99.90;;;;;;5094406;28;20039;-75
2022/03/27 08:15:50;;;;;;;33.38;7.90;;;8.30;99.90;;;;;;5084245;28;20048;-73
2022/03/27 08:18:15;;;;;;;34.67;7.82;;;8.30;99.90;;;;;;5085076;28;20035;-78
2022/03/27 08:20:41;;;;;;;42.22;8.68;;;8.40;99.90;;;;;;5103582;28;20446;-76
2022/03/27 08:23:07;;;;;;;38.35;8.32;;;8.40;99.90;;;;;;5096056;28;20473;-72
2022/03/27 08:28:20;;;;;;;41.33;8.70;;;8.50;99.90;;;;;;5098676;28;20051;-75
2022/03/27 08:30:49;;;;;;;33.25;8.40;;;8.50;99.90;;;;;;5105041;28;20055;-73
2022/03/27 08:33:16;;;;;;;33.15;8.50;;;7.60;99.90;;;;;;5099708;28;20534;-74
2022/03/27 08:35:42;;;;;;;38.53;9.27;;;8.70;99.90;;;;;;5114185;28;20047;-74
2022/03/27 08:38:12;;;;;;;34.65;8.18;;;8.70;99.90;;;;;;5110939;28;20831;-72
2022/03/27 08:40:40;;;;;;;35.70;8.88;;;8.70;99.90;;;;;;5115928;28;20492;-74
2022/03/27 08:43:10;;;;;;;42.25;8.50;;;8.70;99.90;;;;;;5113246;28;20039;-73
2022/03/27 08:45:36;;;;;;;36.55;7.57;;;8.80;99.90;;;;;;5113472;28;20047;-73
2022/03/27 08:48:04;;;;;;;30.00;8.05;;;8.80;99.90;;;;;;5125304;28;20052;-78
2022/03/27 08:50:36;;;;;;;33.08;7.32;;;8.80;99.90;;;;;;5114877;28;20043;-78
2022/03/27 08:53:05;;;;;;;39.28;9.50;;;8.90;99.90;;;;;;5097043;28;20075;-79
2022/03/27 08:55:40;;;;;;;29.23;7.45;;;9.00;99.90;;;;;;5096794;28;20047;-79
2022/03/27 08:58:09;;;;;;;34.22;8.52;;;9.00;99.90;;;;;;5113011;28;20040;-74
2022/03/27 09:00:34;;;;;;;34.83;8.07;;;9.10;99.90;;;;;;5085644;28;20130;-79
2022/03/27 09:03:04;;;;;;;51.38;9.52;;;9.20;99.90;;;;;;5095836;28;20131;-80
2022/03/27 09:05:32;;;;;;;31.80;8.43;;;9.30;99.90;;;;;;5094612;27;20433;-79
2022/03/27 09:08:11;;;;;;;24.13;7.43;;;9.40;99.90;;;;;;5103557;28;20545;-78
2022/03/27 09:10:39;;;;;;;27.13;6.82;;;9.50;99.90;;;;;;5082404;28;20125;-80
2022/03/27 09:13:12;;;;;;;37.72;8.13;;;9.70;99.90;;;;;;5104407;28;20115;-79
2022/03/27 09:15:38;;;;;;;32.45;7.60;;;9.70;99.90;;;;;;5100194;28;20047;-79
2022/03/27 09:18:08;;;;;;;27.58;7.22;;;9.70;99.90;;;;;;5093872;28;20467;-79
2022/03/27 09:20:46;;;;;;;33.50;7.55;;;9.80;99.90;;;;;;5076869;28;20048;-79
2022/03/27 09:23:27;;;;;;;30.02;7.05;;;9.80;99.90;;;;;;5093066;28;20067;-80
2022/03/27 09:25:57;;;;;;;31.58;7.03;;;9.90;99.90;;;;;;5093406;28;20048;-79
2022/03/27 09:28:45;;;;;;;35.63;7.95;;;9.90;99.90;;;;;;5073122;28;20055;-78
2022/03/27 09:31:18;;;;;;;33.78;8.95;;;10.00;99.90;;;;;;5078044;28;20092;-78
2022/03/27 09:34:01;;;;;;;27.40;6.57;;;10.00;99.90;;;;;;5084310;28;20086;-79
2022/03/27 09:36:39;;;;;;;41.08;8.65;;;10.00;99.90;;;;;;5103716;28;20038;-79
2022/03/27 09:39:13;;;;;;;31.25;7.28;;;10.10;99.90;;;;;;5094592;28;20043;-80
2022/03/27 09:41:48;;;;;;;34.40;7.68;;;10.20;99.90;;;;;;5089262;28;20055;-80
2022/03/27 09:44:32;;;;;;;23.15;7.03;;;10.30;99.90;;;;;;5081119;28;20051;-80
2022/03/27 09:47:06;;;;;;;33.90;7.00;;;10.40;99.90;;;;;;5095328;28;20092;-79
2022/03/27 09:49:34;;;;;;;33.72;8.55;;;10.50;99.90;;;;;;5113516;28;20401;-79
2022/03/27 09:52:20;;;;;;;34.60;7.63;;;10.60;99.90;;;;;;5093867;28;20062;-79
2022/03/27 09:55:02;;;;;;;24.45;7.13;;;10.60;99.90;;;;;;5105032;27;20039;-81
2022/03/27 09:57:37;;;;;;;28.08;6.50;;;10.70;99.90;;;;;;5095626;28;20054;-81
2022/03/27 10:00:15;;;;;;;27.17;6.03;;;10.70;99.90;;;;;;5073791;28;20509;-80
2022/03/27 10:02:42;;;;;;;30.70;6.35;;;10.80;99.90;;;;;;5074910;28;20048;-81
2022/03/27 10:05:10;;;;;;;28.40;6.55;;;10.80;99.90;;;;;;5082132;28;20113;-81
2022/03/27 10:07:56;;;;;;;30.25;8.02;;;10.90;99.90;;;;;;5109635;27;20052;-81
2022/03/27 10:10:24;;;;;;;22.30;6.38;;;10.90;99.90;;;;;;5078932;28;20115;-81
2022/03/27 10:12:52;;;;;;;30.08;6.40;;;11.00;99.90;;;;;;5099214;28;20127;-83
2022/03/27 10:15:20;;;;;;;22.00;6.38;;;11.00;99.90;;;;;;5095033;28;20047;-81
2022/03/27 10:17:50;;;;;;;27.90;6.72;;;11.10;99.90;;;;;;5081079;28;20044;-81
2022/03/27 10:20:18;;;;;;;29.95;7.25;;;11.10;99.90;;;;;;5094396;28;20098;-81
2022/03/27 10:22:52;;;;;;;27.50;7.22;;;11.20;99.90;;;;;;5098520;27;20075;-80
2022/03/27 10:25:18;;;;;;;26.85;7.47;;;11.10;99.90;;;;;;5085921;28;20824;-81
2022/03/27 10:27:48;;;;;;;20.73;5.88;;;11.20;99.90;;;;;;5104568;28;20050;-77
2022/03/27 10:30:16;;;;;;;22.50;6.28;;;11.20;99.90;;;;;;5079503;28;20051;-78
2022/03/27 10:32:43;;;;;;;25.73;6.78;;;11.20;99.90;;;;;;5079942;28;20044;-79
2022/03/27 10:35:32;;;;;;;29.58;6.60;;;11.10;99.90;;;;;;5078955;28;20589;-80
2022/03/27 10:38:04;;;;;;;19.50;5.18;;;11.90;99.90;;;;;;5092213;28;20580;-78
2022/03/27 10:41:20;;;;;;;24.73;5.68;;;11.40;99.90;;;;;;5087527;28;20135;-79
2022/03/27 10:43:50;;;;;;;24.17;5.25;;;11.40;99.90;;;;;;5083989;28;20052;-79
2022/03/27 10:46:24;;;;;;;25.17;5.57;;;11.40;99.90;;;;;;5077629;28;20071;-80
2022/03/27 10:48:53;;;;;;;26.40;7.38;;;11.50;99.90;;;;;;5090643;28;20135;-79
2022/03/27 10:51:24;;;;;;;29.50;6.18;;;11.40;99.90;;;;;;5073657;28;20044;-78
2022/03/27 10:54:27;;;;;;;17.15;4.78;;;11.50;99.90;;;;;;5073868;28;20482;-79
2022/03/27 10:56:54;;;;;;;20.33;5.00;;;11.60;99.90;;;;;;5092278;28;20051;-79
2022/03/27 10:59:25;;;;;;;27.23;4.57;;;11.70;99.90;;;;;;5092162;28;20028;-79
2022/03/27 11:01:58;;;;;;;23.52;5.85;;;11.80;99.90;;;;;;5074028;28;20052;-80
2022/03/27 11:04:44;;;;;;;21.33;5.20;;;11.80;99.90;;;;;;5091261;28;20092;-79
2022/03/27 11:07:15;;;;;;;22.05;5.32;;;11.90;99.90;;;;;;5093268;28;20051;-79
2022/03/27 11:09:44;;;;;;;23.45;4.65;;;12.10;99.90;;;;;;5092328;28;20075;-80
2022/03/27 11:12:25;;;;;;;17.13;5.13;;;12.20;99.90;;;;;;5094059;28;20044;-78
2022/03/27 11:14:54;;;;;;;17.40;5.13;;;12.30;99.90;;;;;;5094440;28;20093;-72
2022/03/27 11:17:47;;;;;;;19.85;4.75;;;12.30;99.90;;;;;;5112107;28;20043;-75
2022/03/27 11:20:21;;;;;;;17.88;4.82;;;12.30;99.90;;;;;;5082604;28;20052;-77
2022/03/27 11:22:53;;;;;;;13.60;3.67;;;12.30;99.90;;;;;;5103102;28;20297;-78
2022/03/27 11:25:28;;;;;;;17.40;4.20;;;12.40;99.90;;;;;;5092253;28;20051;-77
2022/03/27 11:28:17;;;;;;;19.63;4.88;;;12.40;99.90;;;;;;5092019;28;20051;-77
2022/03/27 11:30:55;;;;;;;18.80;4.55;;;12.50;99.90;;;;;;5073314;28;20459;-78
2022/03/27 11:33:26;;;;;;;17.98;4.80;;;12.50;99.90;;;;;;5091982;28;20044;-76
2022/03/27 11:36:04;;;;;;;17.10;4.25;;;12.50;99.90;;;;;;5091379;28;20091;-78
2022/03/27 11:38:52;;;;;;;19.95;4.50;;;12.60;99.90;;;;;;5094603;28;20051;-75
2022/03/27 11:41:24;;;;;;;15.80;4.40;;;12.70;99.90;;;;;;5093675;28;20047;-77
2022/03/27 11:43:50;;;;;;;15.23;4.57;;;12.70;99.90;;;;;;5075219;28;20040;-75
2022/03/27 11:46:29;;;;;;;19.60;4.50;;;12.80;99.90;;;;;;5091749;28;20054;-80
2022/03/27 11:49:00;;;;;;;10.57;3.30;;;12.80;99.90;;;;;;5091119;28;20066;-70
2022/03/27 11:51:27;;;;;;;23.00;4.68;;;12.90;99.90;;;;;;5076224;28;20048;-78
2022/03/27 11:53:54;;;;;;;20.58;4.93;;;13.00;99.90;;;;;;5093667;28;20039;-77
2022/03/27 11:56:21;;;;;;;18.52;4.78;;;13.00;99.90;;;;;;5094297;28;20050;-77
2022/03/27 11:59:12;;;;;;;17.77;4.72;;;13.00;99.90;;;;;;5089301;28;20681;-76
2022/03/27 12:01:38;;;;;;;25.42;5.35;;;13.10;99.90;;;;;;5101129;28;20425;-77
2022/03/27 12:04:06;;;;;;;15.02;5.57;;;13.00;99.90;;;;;;5080344;28;20039;-78
2022/03/27 12:06:32;;;;;;;15.68;4.65;;;13.00;99.90;;;;;;5082011;28;20177;-78
2022/03/27 12:09:00;;;;;;;14.13;3.88;;;13.10;99.90;;;;;;5084469;28;20138;-77
2022/03/27 12:11:26;;;;;;;20.70;5.28;;;13.10;99.90;;;;;;5089276;28;20156;-78
2022/03/27 12:13:53;;;;;;;22.15;4.55;;;13.10;99.90;;;;;;5092284;28;20099;-78
2022/03/27 12:16:24;;;;;;;15.00;4.38;;;13.10;99.90;;;;;;5093758;28;20046;-78
2022/03/27 12:18:53;;;;;;;19.10;4.05;;;13.20;99.90;;;;;;5097216;28;20045;-78
2022/03/27 12:21:21;;;;;;;19.90;4.65;;;13.30;99.90;;;;;;5091410;28;20086;-78
2022/03/27 12:24:02;;;;;;;16.42;5.63;;;13.30;99.90;;;;;;5073993;28;20051;-78
2022/03/27 12:29:50;;;;;;;22.92;4.32;;;13.30;99.90;;;;;;5092694;28;20454;-78
2022/03/27 12:32:19;;;;;;;21.02;4.63;;;13.30;99.90;;;;;;5097213;28;20470;-78
2022/03/27 12:34:50;;;;;;;19.67;4.65;;;13.30;99.90;;;;;;5097006;28;20052;-78
2022/03/27 12:37:19;;;;;;;19.38;4.55;;;13.40;99.90;;;;;;5097820;28;20043;-78
2022/03/27 12:39:47;;;;;;;24.48;5.43;;;13.40;99.90;;;;;;5097229;28;20465;-78
2022/03/27 12:42:32;;;;;;;14.98;4.68;;;13.40;99.90;;;;;;5097556;28;20162;-78
2022/03/27 12:45:03;;;;;;;17.38;5.00;;;13.40;99.90;;;;;;5097430;28;20054;-78
2022/03/27 12:47:45;;;;;;;20.40;4.43;;;13.50;99.90;;;;;;5096310;28;20052;-78
2022/03/27 12:50:13;;;;;;;19.10;4.00;;;13.50;99.90;;;;;;5115662;28;20050;-78
2022/03/27 12:52:53;;;;;;;26.17;6.13;;;13.40;99.90;;;;;;5115704;28;20052;-78
2022/03/27 12:55:19;;;;;;;27.38;5.35;;;13.40;99.90;;;;;;5115069;28;20055;-78
2022/03/27 12:57:57;;;;;;;22.45;4.25;;;13.20;99.90;;;;;;5097449;28;20062;-78
2022/03/27 13:00:26;;;;;;;21.88;4.82;;;13.10;99.90;;;;;;5097028;28;20497;-78
2022/03/27 13:03:16;;;;;;;15.98;4.65;;;13.20;99.90;;;;;;5096262;28;20042;-78
2022/03/27 13:06:01;;;;;;;15.82;3.58;;;13.20;99.90;;;;;;5096968;28;20040;-78
2022/03/27 13:08:35;;;;;;;24.23;5.35;;;13.20;99.90;;;;;;5097496;28;20432;-78